Time;durP1;ratioP1;P1;durP2;ratioP2;P2;SDS_P1;SDS_P2;PMS_P1;PMS_P2;Temp;Humidity;BMP_temperature;BMP_pressure;BME280_temperature;BME280_humidity;BME280_pressure;Samples;Min_cycle;Max_cycle;Signal;HPM_P1;HPM_P2
2023/12/09 00:00:15;;;;;;;10.30;3.65;;;;;;;;;;5034002;28;20033;-62
2023/12/09 00:02:40;;;;;;;13.80;3.80;;;;;;;;;;5045979;28;20391;-63
2023/12/09 00:05:06;;;;;;;13.27;3.80;;;;;;;;;;5037397;28;20033;-62
2023/12/09 00:07:31;;;;;;;14.38;3.75;;;;;;;;;;5037224;28;20033;-62
2023/12/09 00:09:57;;;;;;;11.48;3.67;;;;;;;;;;5026500;28;20384;-62
2023/12/09 00:12:22;;;;;;;12.40;3.78;;;;;;;;;;5046576;28;21501;-62
2023/12/09 00:14:47;;;;;;;9.93;3.55;;;;;;;;;;5033478;28;20032;-63
2023/12/09 00:17:13;;;;;;;10.75;3.55;;;;;;;;;;5041008;28;20044;-63
2023/12/09 00:19:38;;;;;;;14.40;3.70;;;;;;;;;;5037946;28;20145;-63
2023/12/09 00:22:03;;;;;;;12.50;3.67;;;;;;;;;;5054414;28;20037;-63
2023/12/09 00:24:30;;;;;;;14.82;3.50;;;;;;;;;;5046152;28;20064;-62
2023/12/09 00:26:55;;;;;;;13.40;3.83;;;;;;;;;;5047290;28;20053;-63
2023/12/09 00:29:20;;;;;;;12.52;3.78;;;;;;;;;;5032258;28;20068;-63
2023/12/09 00:31:46;;;;;;;13.18;3.72;;;;;;;;;;5032202;28;20051;-64
2023/12/09 00:34:11;;;;;;;12.05;4.03;;;;;;;;;;5047630;28;20478;-64
2023/12/09 00:36:37;;;;;;;14.23;4.40;;;;;;;;;;5051817;28;20033;-64
2023/12/09 00:39:02;;;;;;;9.85;3.95;;;;;;;;;;5044750;28;20427;-64
2023/12/09 00:41:28;;;;;;;17.23;4.07;;;;;;;;;;5051387;28;20044;-64
2023/12/09 00:43:53;;;;;;;11.60;3.92;;;;;;;;;;5053522;28;20045;-64
2023/12/09 00:46:21;;;;;;;16.25;4.10;;;;;;;;;;5053864;28;20028;-64
2023/12/09 00:48:46;;;;;;;12.90;4.20;;;;;;;;;;5044712;28;20108;-64
2023/12/09 00:51:13;;;;;;;8.45;3.72;;;;;;;;;;5052509;28;20452;-63
2023/12/09 00:53:38;;;;;;;13.35;3.85;;;;;;;;;;5052570;28;20025;-63
2023/12/09 00:56:04;;;;;;;10.98;3.67;;;;;;;;;;5053630;28;20479;-64
2023/12/09 00:58:29;;;;;;;11.82;3.80;;;;;;;;;;5047781;28;20112;-62
2023/12/09 01:00:55;;;;;;;15.43;4.18;;;;;;;;;;5051104;28;20112;-63
2023/12/09 01:03:20;;;;;;;12.13;3.65;;;;;;;;;;5052059;28;20025;-61
2023/12/09 01:05:45;;;;;;;9.95;3.78;;;;;;;;;;5046984;28;20035;-61
2023/12/09 01:08:11;;;;;;;9.82;3.90;;;;;;;;;;5048346;28;20455;-61
2023/12/09 01:10:36;;;;;;;14.13;4.18;;;;;;;;;;5018396;28;20125;-61
2023/12/09 01:13:02;;;;;;;11.82;3.85;;;;;;;;;;5017287;28;20041;-61
2023/12/09 01:15:27;;;;;;;11.57;3.90;;;;;;;;;;5033818;28;20091;-61
2023/12/09 01:17:52;;;;;;;11.25;3.85;;;;;;;;;;5049827;28;20033;-62
2023/12/09 01:20:18;;;;;;;9.55;3.88;;;;;;;;;;5018731;28;20048;-61
2023/12/09 01:22:44;;;;;;;14.75;3.78;;;;;;;;;;5035689;28;20107;-61
2023/12/09 01:25:09;;;;;;;16.15;4.13;;;;;;;;;;5047140;28;20107;-61
2023/12/09 01:27:35;;;;;;;14.02;3.88;;;;;;;;;;5050716;28;20386;-60
2023/12/09 01:30:00;;;;;;;15.82;3.67;;;;;;;;;;5048969;28;20033;-61
2023/12/09 01:32:25;;;;;;;12.02;3.67;;;;;;;;;;5043632;28;20053;-63
2023/12/09 01:34:51;;;;;;;14.55;3.83;;;;;;;;;;5038114;28;20028;-63
2023/12/09 01:37:16;;;;;;;11.85;3.90;;;;;;;;;;5044616;28;20039;-63
2023/12/09 01:39:41;;;;;;;14.52;3.92;;;;;;;;;;5047628;28;20130;-63
2023/12/09 01:42:08;;;;;;;10.50;3.50;;;;;;;;;;5051547;28;20059;-63
2023/12/09 01:44:33;;;;;;;15.52;3.70;;;;;;;;;;5050475;28;20132;-62
2023/12/09 01:46:59;;;;;;;11.63;3.58;;;;;;;;;;5050321;28;20112;-64
2023/12/09 01:49:24;;;;;;;12.48;3.42;;;;;;;;;;5047472;28;20094;-64
2023/12/09 01:51:50;;;;;;;11.77;2.90;;;;;;;;;;5051751;28;20029;-64
2023/12/09 01:54:15;;;;;;;11.75;3.63;;;;;;;;;;5048309;28;20516;-64
2023/12/09 01:56:41;;;;;;;14.95;3.65;;;;;;;;;;5029655;28;20096;-66
2023/12/09 01:59:06;;;;;;;10.75;3.30;;;;;;;;;;5023360;28;20044;-65
2023/12/09 02:01:35;;;;;;;16.35;3.45;;;;;;;;;;5050965;28;20372;-64
2023/12/09 02:04:02;;;;;;;11.90;3.40;;;;;;;;;;5044902;28;20033;-64
2023/12/09 02:06:27;;;;;;;11.98;3.38;;;;;;;;;;5050917;28;20033;-65
2023/12/09 02:08:54;;;;;;;12.88;3.67;;;;;;;;;;5042538;28;20636;-64
2023/12/09 02:11:28;;;;;;;10.32;3.17;;;;;;;;;;5040796;28;20090;-65
2023/12/09 02:14:29;;;;;;;11.95;3.17;;;;;;;;;;5049786;28;20061;-65
2023/12/09 02:17:11;;;;;;;10.65;3.13;;;;;;;;;;5002199;28;20610;-65
2023/12/09 02:19:38;;;;;;;10.80;3.30;;;;;;;;;;5029865;28;20053;-65
2023/12/09 02:22:06;;;;;;;17.88;3.13;;;;;;;;;;5046703;28;20033;-65
2023/12/09 02:24:31;;;;;;;8.55;3.13;;;;;;;;;;5050795;28;20033;-66
2023/12/09 02:27:09;;;;;;;10.43;3.28;;;;;;;;;;5051163;28;20423;-66
2023/12/09 02:29:44;;;;;;;10.82;3.47;;;;;;;;;;5026954;28;20080;-65
2023/12/09 02:32:12;;;;;;;12.48;2.80;;;;;;;;;;5011976;28;20052;-65
2023/12/09 02:34:40;;;;;;;9.68;2.90;;;;;;;;;;5034324;28;20033;-64
2023/12/09 02:37:07;;;;;;;11.80;3.42;;;;;;;;;;5036691;28;20060;-64
2023/12/09 02:39:33;;;;;;;14.10;3.40;;;;;;;;;;5030540;28;20495;-64
2023/12/09 02:41:58;;;;;;;11.13;3.50;;;;;;;;;;5049221;28;20090;-63
2023/12/09 02:44:24;;;;;;;11.05;3.30;;;;;;;;;;5048058;28;20120;-63
2023/12/09 02:46:56;;;;;;;12.32;3.22;;;;;;;;;;5050682;28;20475;-63
2023/12/09 02:49:23;;;;;;;17.13;3.45;;;;;;;;;;5036578;28;21800;-62
2023/12/09 02:51:49;;;;;;;9.10;3.10;;;;;;;;;;5050671;28;20057;-62
2023/12/09 02:54:14;;;;;;;19.65;4.10;;;;;;;;;;5043407;28;20029;-63
2023/12/09 02:56:40;;;;;;;15.38;3.45;;;;;;;;;;5030021;28;20037;-62
2023/12/09 02:59:05;;;;;;;14.85;3.38;;;;;;;;;;5025607;28;20032;-62
2023/12/09 03:01:30;;;;;;;14.10;3.08;;;;;;;;;;5047679;28;20036;-62
2023/12/09 03:03:56;;;;;;;12.90;2.85;;;;;;;;;;5045316;28;20025;-63
2023/12/09 03:06:21;;;;;;;10.80;3.25;;;;;;;;;;5047811;28;20040;-63
2023/12/09 03:08:46;;;;;;;16.85;3.80;;;;;;;;;;5042907;28;20032;-62
2023/12/09 03:11:12;;;;;;;12.90;3.40;;;;;;;;;;5043221;28;20137;-63
2023/12/09 03:13:37;;;;;;;12.60;3.35;;;;;;;;;;5043585;28;20698;-62
2023/12/09 03:16:03;;;;;;;14.07;3.30;;;;;;;;;;5044222;28;20280;-62
2023/12/09 03:18:28;;;;;;;13.27;3.40;;;;;;;;;;5035052;28;20033;-63
2023/12/09 03:20:53;;;;;;;11.35;3.13;;;;;;;;;;5050622;28;20045;-62
2023/12/09 03:23:19;;;;;;;13.00;3.95;;;;;;;;;;5043273;28;20037;-63
2023/12/09 03:25:44;;;;;;;10.98;3.15;;;;;;;;;;5050294;28;20052;-63
2023/12/09 03:28:09;;;;;;;11.38;3.30;;;;;;;;;;5042890;28;20116;-63
2023/12/09 03:30:35;;;;;;;11.57;3.70;;;;;;;;;;5050414;28;20029;-63
2023/12/09 03:33:01;;;;;;;10.15;3.25;;;;;;;;;;5042230;28;20029;-63
2023/12/09 03:35:26;;;;;;;12.05;3.40;;;;;;;;;;5044021;28;20379;-63
2023/12/09 03:37:51;;;;;;;12.07;4.28;;;;;;;;;;5048110;28;20060;-62
2023/12/09 03:40:17;;;;;;;9.90;3.80;;;;;;;;;;5057104;28;20393;-62
2023/12/09 03:42:42;;;;;;;10.35;3.35;;;;;;;;;;5045846;28;20041;-62
2023/12/09 03:45:08;;;;;;;11.90;3.60;;;;;;;;;;5048589;28;20036;-63
2023/12/09 03:47:33;;;;;;;16.13;3.30;;;;;;;;;;5052510;28;20021;-63
2023/12/09 03:49:59;;;;;;;14.55;3.72;;;;;;;;;;5050030;28;20078;-61
2023/12/09 03:52:24;;;;;;;11.00;3.33;;;;;;;;;;5053552;28;20025;-62
2023/12/09 03:54:49;;;;;;;12.55;3.47;;;;;;;;;;5052786;28;20033;-62
2023/12/09 03:57:15;;;;;;;12.18;3.45;;;;;;;;;;5027352;28;20041;-62
2023/12/09 03:59:41;;;;;;;13.30;3.20;;;;;;;;;;5047041;28;20462;-62
2023/12/09 04:02:06;;;;;;;13.23;3.45;;;;;;;;;;5034901;28;20072;-62
2023/12/09 04:04:31;;;;;;;13.65;3.60;;;;;;;;;;5045384;28;20025;-62
2023/12/09 04:06:57;;;;;;;10.05;3.00;;;;;;;;;;5043164;28;20021;-61
2023/12/09 04:09:22;;;;;;;14.57;3.92;;;;;;;;;;5017332;28;20037;-61
2023/12/09 04:11:48;;;;;;;11.48;2.97;;;;;;;;;;5028360;28;20540;-61
2023/12/09 04:14:13;;;;;;;14.35;3.05;;;;;;;;;;5038328;28;20083;-61
2023/12/09 04:16:42;;;;;;;11.90;3.28;;;;;;;;;;5051152;28;20040;-61
2023/12/09 04:19:07;;;;;;;14.98;3.22;;;;;;;;;;5053856;28;20041;-61
2023/12/09 04:21:33;;;;;;;11.32;3.15;;;;;;;;;;5044656;28;20040;-61
2023/12/09 04:23:58;;;;;;;13.68;3.30;;;;;;;;;;5053492;28;20039;-61
2023/12/09 04:26:24;;;;;;;13.23;3.20;;;;;;;;;;5053061;28;20072;-61
2023/12/09 04:28:50;;;;;;;15.43;3.25;;;;;;;;;;5042750;28;20032;-61
2023/12/09 04:31:16;;;;;;;8.75;3.25;;;;;;;;;;5045152;28;20383;-61
2023/12/09 04:33:44;;;;;;;14.30;3.33;;;;;;;;;;5053577;28;20055;-61
2023/12/09 04:36:13;;;;;;;12.10;3.65;;;;;;;;;;5025402;28;20048;-61
2023/12/09 04:38:39;;;;;;;10.90;3.22;;;;;;;;;;5048093;28;20040;-61
2023/12/09 04:41:04;;;;;;;12.52;3.20;;;;;;;;;;5049629;28;20863;-61
2023/12/09 04:43:29;;;;;;;8.27;3.15;;;;;;;;;;5052638;28;20044;-62
2023/12/09 04:45:55;;;;;;;12.27;3.17;;;;;;;;;;5019357;28;20034;-61
2023/12/09 04:48:20;;;;;;;9.27;3.03;;;;;;;;;;5014059;28;20109;-61
2023/12/09 04:50:45;;;;;;;13.45;3.45;;;;;;;;;;5020765;28;20032;-61
2023/12/09 04:53:11;;;;;;;10.63;3.70;;;;;;;;;;5048813;28;20029;-61
2023/12/09 04:55:37;;;;;;;15.57;3.58;;;;;;;;;;5053248;28;20028;-61
2023/12/09 04:58:03;;;;;;;13.23;3.45;;;;;;;;;;5022698;28;20148;-63
2023/12/09 05:00:28;;;;;;;16.02;4.00;;;;;;;;;;5044476;28;20112;-63
2023/12/09 05:02:54;;;;;;;10.80;3.08;;;;;;;;;;5051544;28;20039;-62
2023/12/09 05:05:19;;;;;;;13.45;3.95;;;;;;;;;;5048233;28;20114;-63
2023/12/09 05:07:44;;;;;;;9.15;3.22;;;;;;;;;;5033828;28;20052;-61
2023/12/09 05:10:12;;;;;;;15.02;3.38;;;;;;;;;;5019117;28;20037;-63
2023/12/09 05:12:39;;;;;;;8.98;2.92;;;;;;;;;;5026629;28;20483;-64
2023/12/09 05:15:05;;;;;;;11.15;3.20;;;;;;;;;;5032634;28;20107;-63
2023/12/09 05:17:31;;;;;;;14.73;3.72;;;;;;;;;;5029105;28;20489;-63
2023/12/09 05:19:57;;;;;;;11.88;3.70;;;;;;;;;;5027767;28;20050;-64
2023/12/09 05:22:22;;;;;;;15.35;3.90;;;;;;;;;;5013428;28;20440;-63
2023/12/09 05:24:48;;;;;;;13.07;3.00;;;;;;;;;;5042556;28;20037;-61
2023/12/09 05:27:13;;;;;;;14.68;3.35;;;;;;;;;;5028257;28;20163;-62
2023/12/09 05:29:39;;;;;;;9.27;3.03;;;;;;;;;;5031412;28;20034;-63
2023/12/09 05:32:05;;;;;;;10.77;3.45;;;;;;;;;;5032436;28;20044;-63
2023/12/09 05:34:31;;;;;;;13.55;4.10;;;;;;;;;;5021344;28;20033;-63
2023/12/09 05:36:56;;;;;;;14.60;3.70;;;;;;;;;;5012531;28;20516;-62
2023/12/09 05:39:22;;;;;;;11.32;3.17;;;;;;;;;;5028996;28;20040;-62
2023/12/09 05:41:47;;;;;;;9.23;3.17;;;;;;;;;;5032636;28;20068;-63
2023/12/09 05:44:13;;;;;;;10.02;3.22;;;;;;;;;;5032741;28;20048;-63
2023/12/09 05:46:40;;;;;;;11.65;3.70;;;;;;;;;;5030166;28;20037;-63
2023/12/09 05:49:05;;;;;;;13.15;3.63;;;;;;;;;;5032082;28;20033;-62
2023/12/09 05:51:30;;;;;;;10.13;3.40;;;;;;;;;;5032218;28;20025;-62
2023/12/09 05:53:56;;;;;;;14.00;3.78;;;;;;;;;;5032085;28;20423;-62
2023/12/09 05:56:21;;;;;;;12.40;3.25;;;;;;;;;;5027032;28;20034;-63
2023/12/09 05:58:46;;;;;;;10.35;3.47;;;;;;;;;;5012897;28;20072;-62
2023/12/09 06:01:12;;;;;;;15.18;3.38;;;;;;;;;;5012300;28;20048;-64
2023/12/09 06:03:37;;;;;;;10.95;3.00;;;;;;;;;;5013005;28;20030;-63
2023/12/09 06:06:03;;;;;;;13.85;3.38;;;;;;;;;;5011946;28;20121;-64
2023/12/09 06:08:29;;;;;;;10.60;2.60;;;;;;;;;;5028515;28;20033;-62
2023/12/09 06:10:54;;;;;;;8.70;2.45;;;;;;;;;;5031791;28;20091;-62
2023/12/09 06:13:20;;;;;;;10.07;2.88;;;;;;;;;;5032478;28;20037;-62
2023/12/09 06:15:45;;;;;;;10.20;3.13;;;;;;;;;;5031106;28;20057;-63
2023/12/09 06:18:11;;;;;;;8.63;3.10;;;;;;;;;;5030872;28;20483;-64
2023/12/09 06:20:36;;;;;;;9.93;3.17;;;;;;;;;;5032377;28;20073;-63
2023/12/09 06:23:02;;;;;;;11.80;3.50;;;;;;;;;;5012333;28;20542;-62
2023/12/09 06:25:27;;;;;;;8.48;3.20;;;;;;;;;;5044799;28;20057;-64
2023/12/09 06:27:53;;;;;;;11.52;3.08;;;;;;;;;;5018494;28;20502;-62
2023/12/09 06:30:18;;;;;;;10.23;3.00;;;;;;;;;;5028764;28;20026;-63
2023/12/09 06:32:43;;;;;;;7.80;2.88;;;;;;;;;;5032209;28;20040;-63
2023/12/09 06:35:09;;;;;;;8.07;3.10;;;;;;;;;;5020599;28;20606;-62
2023/12/09 06:37:34;;;;;;;9.00;2.92;;;;;;;;;;5012593;28;20119;-63
2023/12/09 06:40:00;;;;;;;8.02;2.83;;;;;;;;;;5011831;28;20029;-62
2023/12/09 06:42:25;;;;;;;11.30;3.35;;;;;;;;;;5012580;28;20045;-64
2023/12/09 06:44:51;;;;;;;11.05;3.80;;;;;;;;;;5012372;28;20039;-61
2023/12/09 06:47:16;;;;;;;11.15;3.10;;;;;;;;;;5028333;28;20459;-64
2023/12/09 06:49:42;;;;;;;9.88;2.83;;;;;;;;;;5031631;28;20044;-63
2023/12/09 06:52:07;;;;;;;7.13;2.78;;;;;;;;;;5031077;28;20034;-63
2023/12/09 06:54:32;;;;;;;12.00;3.47;;;;;;;;;;5030218;28;20434;-65
2023/12/09 06:56:58;;;;;;;8.73;3.00;;;;;;;;;;5028200;28;20104;-64
2023/12/09 06:59:25;;;;;;;12.13;2.63;;;;;;;;;;5015740;28;20125;-64
2023/12/09 07:01:51;;;;;;;8.65;3.00;;;;;;;;;;5031502;28;20357;-61
2023/12/09 07:04:16;;;;;;;10.35;3.35;;;;;;;;;;5030777;28;20114;-63
2023/12/09 07:06:42;;;;;;;10.27;2.92;;;;;;;;;;5029169;28;20045;-65
2023/12/09 07:09:08;;;;;;;12.13;3.30;;;;;;;;;;5030745;28;20039;-64
2023/12/09 07:11:34;;;;;;;7.43;3.30;;;;;;;;;;5030002;28;20037;-64
2023/12/09 07:13:59;;;;;;;7.30;2.60;;;;;;;;;;5030768;28;20038;-64
2023/12/09 07:16:24;;;;;;;9.50;3.00;;;;;;;;;;5021128;28;20029;-65
2023/12/09 07:18:51;;;;;;;9.27;3.63;;;;;;;;;;5031918;28;20519;-65
2023/12/09 07:21:16;;;;;;;7.93;2.90;;;;;;;;;;5034667;28;20400;-65
2023/12/09 07:23:43;;;;;;;6.72;2.72;;;;;;;;;;5035151;28;20033;-63
2023/12/09 07:26:08;;;;;;;9.98;2.95;;;;;;;;;;5032778;28;20037;-63
2023/12/09 07:28:34;;;;;;;7.30;2.80;;;;;;;;;;5035256;28;20033;-65
2023/12/09 07:30:59;;;;;;;6.40;2.40;;;;;;;;;;5034462;28;20032;-64
2023/12/09 07:33:25;;;;;;;7.05;2.47;;;;;;;;;;5028036;28;20362;-64
2023/12/09 07:35:50;;;;;;;10.00;2.55;;;;;;;;;;5021539;28;20032;-66
2023/12/09 07:38:17;;;;;;;6.57;2.30;;;;;;;;;;5033835;28;20116;-66
2023/12/09 07:40:42;;;;;;;6.78;2.40;;;;;;;;;;5035197;28;20033;-66
2023/12/09 07:43:08;;;;;;;6.75;2.67;;;;;;;;;;5033760;28;20045;-65
2023/12/09 07:45:33;;;;;;;7.07;2.15;;;;;;;;;;5016960;28;20103;-65
2023/12/09 07:48:03;;;;;;;7.28;2.72;;;;;;;;;;5014681;28;20151;-64
2023/12/09 07:50:32;;;;;;;7.63;2.55;;;;;;;;;;5024486;28;20042;-63
2023/12/09 07:52:57;;;;;;;5.35;2.28;;;;;;;;;;5014161;28;20037;-64
2023/12/09 07:55:23;;;;;;;5.85;2.40;;;;;;;;;;5026658;28;20044;-64
2023/12/09 07:57:48;;;;;;;8.65;2.50;;;;;;;;;;5026469;28;20030;-65
2023/12/09 08:00:14;;;;;;;5.53;2.20;;;;;;;;;;5025976;28;20610;-65
2023/12/09 08:02:39;;;;;;;6.70;2.63;;;;;;;;;;5034976;28;20075;-64
2023/12/09 08:05:06;;;;;;;6.32;2.10;;;;;;;;;;5028347;28;20048;-64
2023/12/09 08:07:31;;;;;;;11.80;2.65;;;;;;;;;;5016525;28;20042;-66
2023/12/09 08:09:56;;;;;;;7.05;2.63;;;;;;;;;;5031447;28;20455;-63
2023/12/09 08:12:22;;;;;;;3.85;2.03;;;;;;;;;;5021649;28;20037;-64
2023/12/09 08:14:47;;;;;;;6.72;2.58;;;;;;;;;;5034742;28;20033;-64
2023/12/09 08:17:13;;;;;;;6.20;2.00;;;;;;;;;;5033919;28;20041;-64
2023/12/09 08:19:38;;;;;;;5.35;2.40;;;;;;;;;;5033656;28;20042;-64
2023/12/09 08:22:04;;;;;;;5.35;2.58;;;;;;;;;;5016402;28;20493;-64
2023/12/09 08:24:29;;;;;;;6.47;2.03;;;;;;;;;;5031608;28;20052;-65
2023/12/09 08:26:55;;;;;;;8.80;2.40;;;;;;;;;;5033593;28;20048;-61
2023/12/09 08:29:21;;;;;;;6.90;2.20;;;;;;;;;;5033781;28;20104;-64
2023/12/09 08:31:49;;;;;;;15.10;3.80;;;;;;;;;;5031120;28;20021;-63
2023/12/09 08:34:15;;;;;;;7.60;2.67;;;;;;;;;;5013505;28;20041;-63
2023/12/09 08:36:40;;;;;;;6.88;2.25;;;;;;;;;;5014118;28;20534;-65
2023/12/09 08:39:07;;;;;;;7.82;2.42;;;;;;;;;;5012480;28;20033;-63
2023/12/09 08:41:33;;;;;;;7.28;2.33;;;;;;;;;;5014305;28;20026;-65
2023/12/09 08:43:58;;;;;;;7.80;2.40;;;;;;;;;;5013708;28;20400;-61
2023/12/09 08:46:23;;;;;;;6.47;2.38;;;;;;;;;;5014198;28;20350;-64
2023/12/09 08:48:49;;;;;;;6.45;2.60;;;;;;;;;;5033370;28;20112;-64
2023/12/09 08:51:14;;;;;;;7.18;2.40;;;;;;;;;;5033101;28;20033;-63
2023/12/09 08:53:40;;;;;;;6.28;2.78;;;;;;;;;;5034029;28;20052;-64
2023/12/09 08:56:06;;;;;;;8.20;2.33;;;;;;;;;;5033049;28;20112;-63
2023/12/09 08:58:32;;;;;;;5.80;2.10;;;;;;;;;;5030771;28;20025;-64
2023/12/09 09:00:58;;;;;;;6.30;2.30;;;;;;;;;;5032640;28;20034;-61
2023/12/09 09:03:24;;;;;;;7.47;2.70;;;;;;;;;;5033163;28;20479;-65
2023/12/09 09:05:49;;;;;;;7.07;2.10;;;;;;;;;;5033451;28;20037;-65
2023/12/09 09:08:14;;;;;;;6.68;2.17;;;;;;;;;;5032464;28;20092;-65
2023/12/09 09:10:40;;;;;;;9.00;2.42;;;;;;;;;;5033460;28;20029;-64
2023/12/09 09:13:05;;;;;;;7.38;2.38;;;;;;;;;;5027697;28;20037;-63
2023/12/09 09:15:31;;;;;;;9.77;2.28;;;;;;;;;;5031881;28;20045;-63
2023/12/09 09:17:57;;;;;;;5.10;2.08;;;;;;;;;;5033265;28;20021;-63
2023/12/09 09:20:22;;;;;;;9.13;2.25;;;;;;;;;;5031996;28;20467;-64
2023/12/09 09:22:49;;;;;;;6.07;2.10;;;;;;;;;;5031943;28;20387;-64
2023/12/09 09:25:15;;;;;;;7.75;2.40;;;;;;;;;;5015868;28;20048;-64
2023/12/09 09:27:40;;;;;;;10.77;2.58;;;;;;;;;;5013306;28;20026;-65
2023/12/09 09:30:07;;;;;;;8.80;2.70;;;;;;;;;;5012232;28;20033;-63
2023/12/09 09:32:32;;;;;;;8.35;2.50;;;;;;;;;;5044373;28;20491;-64
2023/12/09 09:34:57;;;;;;;9.15;2.60;;;;;;;;;;5013534;28;20029;-64
2023/12/09 09:37:23;;;;;;;6.85;2.13;;;;;;;;;;5012390;28;20376;-64
2023/12/09 09:39:48;;;;;;;7.18;2.45;;;;;;;;;;5025983;28;20033;-64
2023/12/09 09:42:25;;;;;;;8.05;2.22;;;;;;;;;;5031700;28;20392;-65
2023/12/09 09:45:05;;;;;;;7.47;1.92;;;;;;;;;;5032825;28;20030;-65
2023/12/09 09:47:36;;;;;;;6.55;2.50;;;;;;;;;;5033089;28;20391;-64
2023/12/09 09:50:03;;;;;;;7.55;2.38;;;;;;;;;;5032513;28;20040;-61
2023/12/09 09:52:30;;;;;;;8.48;2.55;;;;;;;;;;5032685;28;20055;-64
2023/12/09 09:54:57;;;;;;;10.43;2.40;;;;;;;;;;5021934;28;20512;-66
2023/12/09 09:57:23;;;;;;;8.40;2.60;;;;;;;;;;5011972;28;20029;-63
2023/12/09 09:59:49;;;;;;;8.32;2.53;;;;;;;;;;5012975;28;20105;-64
2023/12/09 10:02:19;;;;;;;6.20;1.95;;;;;;;;;;5011835;28;20454;-64
2023/12/09 10:04:44;;;;;;;7.27;2.37;;;;;;;;;;5012754;28;20036;-66
2023/12/09 10:07:11;;;;;;;6.97;2.33;;;;;;;;;;5011772;28;20251;-64
2023/12/09 10:09:36;;;;;;;7.50;2.38;;;;;;;;;;5012986;28;20106;-65
2023/12/09 10:12:01;;;;;;;5.53;2.33;;;;;;;;;;5012376;28;20118;-61
2023/12/09 10:14:27;;;;;;;9.23;2.30;;;;;;;;;;5012307;28;20061;-63
2023/12/09 10:16:53;;;;;;;7.95;2.28;;;;;;;;;;5012591;28;20087;-65
2023/12/09 10:19:20;;;;;;;8.48;2.17;;;;;;;;;;5011414;28;20108;-64
2023/12/09 10:21:46;;;;;;;9.25;2.45;;;;;;;;;;5027645;28;20025;-64
2023/12/09 10:24:11;;;;;;;7.93;2.10;;;;;;;;;;5011674;28;20042;-64
2023/12/09 10:26:38;;;;;;;7.22;2.05;;;;;;;;;;5012456;28;20038;-66
2023/12/09 10:29:03;;;;;;;7.68;2.28;;;;;;;;;;5012314;28;20385;-62
2023/12/09 10:31:30;;;;;;;7.45;2.33;;;;;;;;;;5026977;28;20030;-65
2023/12/09 10:33:56;;;;;;;7.07;2.20;;;;;;;;;;5012475;28;20491;-64
2023/12/09 10:36:22;;;;;;;8.15;2.22;;;;;;;;;;5011158;28;20034;-65
2023/12/09 10:38:51;;;;;;;8.75;3.13;;;;;;;;;;5014616;28;20026;-65
2023/12/09 10:41:17;;;;;;;8.95;2.40;;;;;;;;;;5031050;28;20029;-64
2023/12/09 10:43:42;;;;;;;7.85;2.20;;;;;;;;;;5031996;28;20025;-65
2023/12/09 10:46:08;;;;;;;7.72;2.47;;;;;;;;;;5030969;28;20033;-64
2023/12/09 10:48:34;;;;;;;10.93;2.38;;;;;;;;;;5015702;28;20037;-64
2023/12/09 10:50:59;;;;;;;6.72;2.47;;;;;;;;;;5031799;28;20029;-65
2023/12/09 10:53:25;;;;;;;8.13;2.00;;;;;;;;;;5030547;28;20030;-64
2023/12/09 10:55:51;;;;;;;8.23;2.30;;;;;;;;;;5031415;28;20116;-65
2023/12/09 10:58:18;;;;;;;8.65;2.42;;;;;;;;;;5030876;28;20456;-64
2023/12/09 11:00:45;;;;;;;10.95;2.40;;;;;;;;;;5031700;28;20044;-64
2023/12/09 11:03:11;;;;;;;11.85;2.58;;;;;;;;;;5026339;28;20036;-64
2023/12/09 11:05:45;;;;;;;5.20;2.22;;;;;;;;;;5031340;28;20033;-65
2023/12/09 11:08:12;;;;;;;9.73;2.50;;;;;;;;;;5030662;28;20061;-63
2023/12/09 11:10:38;;;;;;;5.95;2.20;;;;;;;;;;5031633;28;20037;-63
2023/12/09 11:13:03;;;;;;;10.45;2.42;;;;;;;;;;5031423;28;20036;-64
2023/12/09 11:15:30;;;;;;;10.30;2.30;;;;;;;;;;5012431;28;20026;-64
2023/12/09 11:18:06;;;;;;;9.02;2.45;;;;;;;;;;5043439;28;20029;-64
2023/12/09 11:20:31;;;;;;;7.85;2.03;;;;;;;;;;5011011;28;20046;-65
2023/12/09 11:22:57;;;;;;;6.80;2.20;;;;;;;;;;5011787;28;20029;-65
2023/12/09 11:25:25;;;;;;;7.97;2.17;;;;;;;;;;5010937;28;20612;-64
2023/12/09 11:27:52;;;;;;;9.10;2.30;;;;;;;;;;5011903;28;20038;-63
2023/12/09 11:30:36;;;;;;;11.05;2.83;;;;;;;;;;5010867;28;20083;-63
2023/12/09 11:33:03;;;;;;;9.73;2.17;;;;;;;;;;5026761;28;20381;-64
2023/12/09 11:35:28;;;;;;;11.38;2.53;;;;;;;;;;5028317;28;20124;-63
2023/12/09 11:37:59;;;;;;;5.97;1.80;;;;;;;;;;5031242;28;20446;-63
2023/12/09 11:40:28;;;;;;;11.77;2.40;;;;;;;;;;5030477;28;20033;-63
2023/12/09 11:42:54;;;;;;;7.20;2.50;;;;;;;;;;5029845;28;20033;-63
2023/12/09 11:45:21;;;;;;;7.10;2.67;;;;;;;;;;5021942;28;20046;-63
2023/12/09 11:47:47;;;;;;;6.40;2.15;;;;;;;;;;5023262;28;20458;-64
2023/12/09 11:50:16;;;;;;;7.53;2.40;;;;;;;;;;5030268;28;20033;-63
2023/12/09 11:52:43;;;;;;;11.30;2.28;;;;;;;;;;5030956;28;20048;-63
2023/12/09 11:55:10;;;;;;;9.00;2.50;;;;;;;;;;5030436;28;20088;-61
2023/12/09 11:57:37;;;;;;;11.73;2.40;;;;;;;;;;5030888;28;20034;-64
2023/12/09 12:00:06;;;;;;;8.73;2.80;;;;;;;;;;5023866;28;20026;-63
2023/12/09 12:02:33;;;;;;;8.15;2.50;;;;;;;;;;5010311;28;20034;-63
2023/12/09 12:04:58;;;;;;;8.95;2.75;;;;;;;;;;5011294;28;20030;-63
2023/12/09 12:07:24;;;;;;;10.05;2.30;;;;;;;;;;5012900;28;20034;-63
2023/12/09 12:09:49;;;;;;;8.20;2.35;;;;;;;;;;5014937;28;20100;-63
2023/12/09 12:12:16;;;;;;;14.30;3.00;;;;;;;;;;5012586;28;20041;-63
2023/12/09 12:14:41;;;;;;;11.75;2.65;;;;;;;;;;5020649;28;20514;-65
2023/12/09 12:17:07;;;;;;;8.45;2.08;;;;;;;;;;5034683;28;20033;-65
2023/12/09 12:19:32;;;;;;;10.23;2.17;;;;;;;;;;5033295;28;20091;-64
2023/12/09 12:21:58;;;;;;;10.57;2.33;;;;;;;;;;5027707;28;20103;-64
2023/12/09 12:24:25;;;;;;;9.77;2.30;;;;;;;;;;5013854;28;20034;-63
2023/12/09 12:26:55;;;;;;;7.85;2.40;;;;;;;;;;5013448;28;20040;-65
2023/12/09 12:29:21;;;;;;;8.13;2.67;;;;;;;;;;5014116;28;20038;-63
2023/12/09 12:31:50;;;;;;;9.00;2.80;;;;;;;;;;5014832;28;20112;-64
2023/12/09 12:34:19;;;;;;;10.05;2.22;;;;;;;;;;5014078;28;20117;-63
2023/12/09 12:36:48;;;;;;;7.88;2.35;;;;;;;;;;5015059;28;20468;-64
2023/12/09 12:39:14;;;;;;;6.60;1.88;;;;;;;;;;5028932;28;20029;-62
2023/12/09 12:41:40;;;;;;;6.75;2.03;;;;;;;;;;5014405;28;20032;-64
2023/12/09 12:44:06;;;;;;;6.63;2.05;;;;;;;;;;5014876;28;20034;-65
2023/12/09 12:46:32;;;;;;;9.85;2.28;;;;;;;;;;5012218;28;20339;-65
2023/12/09 12:48:58;;;;;;;10.52;2.45;;;;;;;;;;5014053;28;20042;-64
2023/12/09 12:51:24;;;;;;;9.60;2.40;;;;;;;;;;5013404;28;20127;-64
2023/12/09 12:53:50;;;;;;;8.70;2.50;;;;;;;;;;5014515;28;20377;-66
2023/12/09 12:56:15;;;;;;;9.05;2.22;;;;;;;;;;5024322;28;20460;-62
2023/12/09 12:58:41;;;;;;;5.97;2.25;;;;;;;;;;5020860;28;20029;-65
2023/12/09 13:01:06;;;;;;;7.07;2.20;;;;;;;;;;5018715;28;20057;-64
2023/12/09 13:03:33;;;;;;;8.95;2.60;;;;;;;;;;5018186;28;20575;-65
2023/12/09 13:05:58;;;;;;;7.55;2.40;;;;;;;;;;5019933;28;20041;-64
2023/12/09 13:08:24;;;;;;;4.38;2.10;;;;;;;;;;5027482;28;20117;-63
2023/12/09 13:10:49;;;;;;;10.55;2.55;;;;;;;;;;5027567;28;20073;-63
2023/12/09 13:13:15;;;;;;;7.38;2.58;;;;;;;;;;5027317;28;20527;-60
2023/12/09 13:15:40;;;;;;;8.18;2.35;;;;;;;;;;5033165;28;20025;-61
2023/12/09 13:18:06;;;;;;;9.77;2.20;;;;;;;;;;5032940;28;20392;-64
2023/12/09 13:20:32;;;;;;;10.75;2.38;;;;;;;;;;5029382;28;20056;-64
2023/12/09 13:22:57;;;;;;;8.50;2.45;;;;;;;;;;5033134;28;20048;-63
2023/12/09 13:25:23;;;;;;;10.73;2.42;;;;;;;;;;5032463;28;20456;-63
2023/12/09 13:27:48;;;;;;;6.05;1.88;;;;;;;;;;5033345;28;20033;-63
2023/12/09 13:30:14;;;;;;;6.78;2.40;;;;;;;;;;5030323;28;20033;-63
2023/12/09 13:32:39;;;;;;;7.70;2.58;;;;;;;;;;5029671;28;20033;-63
2023/12/09 13:35:06;;;;;;;5.82;2.03;;;;;;;;;;5013396;28;20409;-63
2023/12/09 13:37:32;;;;;;;6.32;2.15;;;;;;;;;;5012544;28;20045;-63
2023/12/09 13:39:58;;;;;;;8.52;2.58;;;;;;;;;;5013730;28;20030;-63
2023/12/09 13:42:23;;;;;;;10.20;2.53;;;;;;;;;;5015099;28;20033;-62
2023/12/09 13:44:49;;;;;;;8.23;2.40;;;;;;;;;;5026573;28;20489;-62
2023/12/09 13:47:16;;;;;;;6.55;2.60;;;;;;;;;;5012851;28;20037;-62
2023/12/09 13:49:42;;;;;;;9.50;2.60;;;;;;;;;;5012500;28;20106;-62
2023/12/09 13:52:08;;;;;;;6.57;2.60;;;;;;;;;;5013005;28;20120;-62
2023/12/09 13:54:34;;;;;;;5.32;2.38;;;;;;;;;;5012054;28;20121;-63
2023/12/09 13:57:00;;;;;;;12.38;2.63;;;;;;;;;;5013068;28;20037;-64
2023/12/09 13:59:25;;;;;;;7.10;2.70;;;;;;;;;;5010642;28;20037;-63
2023/12/09 14:01:50;;;;;;;7.22;2.60;;;;;;;;;;5025568;28;20041;-63
2023/12/09 14:04:16;;;;;;;6.35;2.40;;;;;;;;;;5031201;28;20525;-61
2023/12/09 14:06:42;;;;;;;5.53;2.58;;;;;;;;;;5031979;28;20036;-64
2023/12/09 14:09:08;;;;;;;6.05;2.20;;;;;;;;;;5031484;28;20396;-64
2023/12/09 14:11:33;;;;;;;7.28;2.63;;;;;;;;;;5031648;28;20478;-64
2023/12/09 14:13:59;;;;;;;5.18;2.10;;;;;;;;;;5032263;28;20026;-64
2023/12/09 14:16:25;;;;;;;7.55;2.50;;;;;;;;;;5029793;28;20034;-64
2023/12/09 14:18:50;;;;;;;7.22;2.30;;;;;;;;;;5032337;28;20037;-63
2023/12/09 14:21:15;;;;;;;5.80;2.53;;;;;;;;;;5031390;28;20053;-61
2023/12/09 14:23:41;;;;;;;7.22;2.70;;;;;;;;;;5023241;28;20021;-63
2023/12/09 14:26:08;;;;;;;5.38;2.47;;;;;;;;;;5018421;28;20042;-64
2023/12/09 14:28:34;;;;;;;9.18;2.80;;;;;;;;;;5011273;28;20037;-63